Time;durP1;ratioP1;P1;durP2;ratioP2;P2;SDS_P1;SDS_P2;PMS_P1;PMS_P2;Temp;Humidity;BMP_temperature;BMP_pressure;BME280_temperature;BME280_humidity;BME280_pressure;Samples;Min_cycle;Max_cycle;Signal;HPM_P1;HPM_P2
2021/12/27 00:00:57;;;;;;;13.87;6.63;;;;;;;-2.76;100.00;-19095.00;5016282;28;20359;-66
2021/12/27 00:03:23;;;;;;;17.07;8.43;;;;;;;-2.75;100.00;-19095.13;5014223;28;20037;-66
2021/12/27 00:05:48;;;;;;;12.30;6.70;;;;;;;-2.76;100.00;-19094.88;5010344;28;20635;-66
2021/12/27 00:08:13;;;;;;;18.17;8.13;;;;;;;-2.76;100.00;-19095.00;5013490;28;20032;-65
2021/12/27 00:10:39;;;;;;;14.03;6.67;;;;;;;-2.75;100.00;-19095.13;5010074;28;20026;-66
2021/12/27 00:13:07;;;;;;;14.23;7.27;;;;;;;-2.74;100.00;-19095.41;5019031;28;20083;-66
2021/12/27 00:15:33;;;;;;;14.27;8.17;;;;;;;-2.72;100.00;-19095.94;5013500;28;20474;-66
2021/12/27 00:17:58;;;;;;;17.50;7.90;;;;;;;-2.66;100.00;-19097.53;5014656;28;20293;-66
2021/12/27 00:20:24;;;;;;;16.53;7.27;;;;;;;-2.65;100.00;-19097.81;5007647;28;20025;-65
2021/12/27 00:22:50;;;;;;;15.63;6.50;;;;;;;-2.68;100.00;-19097.13;5003805;28;20202;-66
2021/12/27 00:25:17;;;;;;;19.60;7.77;;;;;;;-2.63;100.00;-19098.34;5011495;28;20030;-65
2021/12/27 00:27:43;;;;;;;12.53;6.77;;;;;;;-2.64;100.00;-19098.06;5011189;28;20718;-66
2021/12/27 00:30:10;;;;;;;20.10;7.57;;;;;;;-2.66;100.00;-19097.53;5014429;28;20598;-66
2021/12/27 00:32:37;;;;;;;17.20;6.90;;;;;;;-2.61;100.00;-19098.88;5008353;28;20279;-66
2021/12/27 00:35:07;;;;;;;14.67;6.53;;;;;;;-2.61;100.00;-19098.88;5008216;28;20380;-67
2021/12/27 00:37:33;;;;;;;13.07;6.70;;;;;;;-2.59;100.00;-19099.41;5010861;28;20280;-66
2021/12/27 00:39:58;;;;;;;15.23;6.40;;;;;;;-2.61;100.00;-19098.88;5008411;28;20400;-66
2021/12/27 00:42:24;;;;;;;16.10;7.03;;;;;;;-2.67;100.00;-19097.25;5011837;28;20029;-66
2021/12/27 00:44:49;;;;;;;19.93;8.03;;;;;;;-2.73;100.00;-19095.66;5013941;28;20035;-66
2021/12/27 00:47:15;;;;;;;19.07;8.03;;;;;;;-2.85;100.00;-19092.59;5008531;28;20060;-66
2021/12/27 00:49:41;;;;;;;18.43;8.40;;;;;;;-2.89;100.00;-19091.53;5013952;28;20025;-66
2021/12/27 00:52:07;;;;;;;14.23;7.00;;;;;;;-2.96;100.00;-19089.66;5007889;28;20017;-66
2021/12/27 00:54:32;;;;;;;13.73;6.70;;;;;;;-3.04;100.00;-19087.66;5007883;28;20280;-65
2021/12/27 00:56:58;;;;;;;14.03;6.97;;;;;;;-3.09;100.00;-19086.31;5013298;28;20424;-66
2021/12/27 00:59:23;;;;;;;16.83;7.57;;;;;;;-3.18;100.00;-19083.94;5010581;28;20032;-66
2021/12/27 01:01:49;;;;;;;16.87;6.90;;;;;;;-3.22;100.00;-19082.84;5008381;28;20041;-66
2021/12/27 01:04:14;;;;;;;16.97;6.80;;;;;;;-3.21;100.00;-19083.00;5009377;28;20187;-65
2021/12/27 01:06:40;;;;;;;15.57;7.40;;;;;;;-3.22;100.00;-19082.84;5014852;28;20355;-65
2021/12/27 01:09:05;;;;;;;12.17;5.53;;;;;;;-3.20;100.00;-19083.41;5014565;28;20022;-65
2021/12/27 01:14:13;;;;;;;15.27;6.37;;;;;;;-3.16;100.00;-19084.31;5010302;28;20033;-65
2021/12/27 01:16:40;;;;;;;14.80;6.60;;;;;;;-3.07;100.00;-19086.88;5016143;28;20322;-65
2021/12/27 01:19:06;;;;;;;15.57;6.53;;;;;;;-2.99;100.00;-19088.88;5007276;28;20288;-65
2021/12/27 01:21:32;;;;;;;17.00;7.40;;;;;;;-2.97;100.00;-19089.53;5006339;28;20329;-65
2021/12/27 01:23:58;;;;;;;17.97;8.23;;;;;;;-2.91;100.00;-19091.00;5007515;28;20113;-65
2021/12/27 01:26:25;;;;;;;15.27;7.77;;;;;;;-2.88;100.00;-19091.66;5010196;28;20774;-66
2021/12/27 01:28:52;;;;;;;17.57;6.97;;;;;;;-2.83;100.00;-19093.00;5003832;28;20021;-65
2021/12/27 01:31:18;;;;;;;17.50;7.03;;;;;;;-2.85;100.00;-19092.47;5006037;28;20268;-65
2021/12/27 01:33:46;;;;;;;20.57;8.30;;;;;;;-2.85;100.00;-19092.59;5009305;28;20303;-65
2021/12/27 01:36:13;;;;;;;17.47;7.60;;;;;;;-2.80;100.00;-19093.94;5009636;28;20538;-65
2021/12/27 01:38:40;;;;;;;12.60;6.07;;;;;;;-2.75;100.00;-19095.13;5007786;28;20692;-65
2021/12/27 01:41:07;;;;;;;13.80;6.70;;;;;;;-2.73;100.00;-19095.66;5011638;28;20272;-65
2021/12/27 01:43:35;;;;;;;22.90;9.13;;;;;;;-2.73;100.00;-19095.81;5012970;28;20273;-65
2021/12/27 01:46:07;;;;;;;12.03;5.93;;;;;;;-2.72;100.00;-19095.94;5003758;28;20275;-66
2021/12/27 01:48:38;;;;;;;17.80;8.00;;;;;;;-2.72;100.00;-19095.94;5013697;28;20264;-66
2021/12/27 01:51:06;;;;;;;18.67;8.37;;;;;;;-2.71;100.00;-19096.34;5013784;28;20366;-65
2021/12/27 01:53:33;;;;;;;10.27;5.10;;;;;;;-2.72;100.00;-19095.94;5010579;28;20764;-65
2021/12/27 01:56:00;;;;;;;21.13;7.93;;;;;;;-2.70;100.00;-19096.59;5010372;28;20617;-65
2021/12/27 01:58:27;;;;;;;17.97;7.47;;;;;;;-2.70;100.00;-19096.59;5014500;28;20280;-66
2021/12/27 02:00:55;;;;;;;13.23;6.23;;;;;;;-2.69;100.00;-19096.72;5014489;28;20625;-65
2021/12/27 02:03:24;;;;;;;12.47;6.17;;;;;;;-2.70;100.00;-19096.47;5026393;22;20334;-69
2021/12/27 02:05:49;;;;;;;17.67;7.07;;;;;;;-2.67;100.00;-19097.25;5062177;28;20798;-70
2021/12/27 02:08:15;;;;;;;12.77;6.00;;;;;;;-2.69;100.00;-19096.72;5064892;28;20263;-70
2021/12/27 02:10:45;;;;;;;18.13;6.33;;;;;;;-2.72;100.00;-19095.94;5064390;28;20059;-70
2021/12/27 02:13:11;;;;;;;16.07;6.07;;;;;;;-2.68;100.00;-19097.00;5055351;28;20314;-70
2021/12/27 02:15:37;;;;;;;14.40;6.80;;;;;;;-2.74;100.00;-19095.41;5062637;28;20033;-70
2021/12/27 02:18:03;;;;;;;17.00;7.20;;;;;;;-2.77;100.00;-19094.72;5063813;28;20597;-70
2021/12/27 02:20:32;;;;;;;12.43;5.83;;;;;;;-2.78;100.00;-19094.47;5065534;28;20024;-70
2021/12/27 02:23:01;;;;;;;19.27;8.07;;;;;;;-2.86;100.00;-19092.19;5064196;28;20275;-70
2021/12/27 02:25:32;;;;;;;15.87;7.43;;;;;;;-2.87;100.00;-19091.94;5064326;28;20286;-70
2021/12/27 02:27:59;;;;;;;14.60;7.27;;;;;;;-2.95;100.00;-19090.06;5064065;28;20279;-70
2021/12/27 02:30:25;;;;;;;13.57;5.43;;;;;;;-2.99;100.00;-19088.88;5064594;28;20351;-70
2021/12/27 02:32:56;;;;;;;14.17;6.63;;;;;;;-3.06;100.00;-19087.00;5063417;28;20313;-70
2021/12/27 02:35:25;;;;;;;16.67;7.73;;;;;;;-3.10;100.00;-19086.06;5057348;28;20358;-70
2021/12/27 02:37:52;;;;;;;19.37;8.57;;;;;;;-3.20;100.00;-19083.41;5063729;28;20302;-70
2021/12/27 02:40:18;;;;;;;18.17;7.70;;;;;;;-3.15;100.00;-19084.59;5063707;28;20286;-70
2021/12/27 02:43:06;;;;;;;15.33;6.73;;;;;;;-3.15;100.00;-19084.72;5063708;28;20762;-70
2021/12/27 02:45:37;;;;;;;20.27;8.53;;;;;;;-3.20;100.00;-19083.41;5063731;28;20278;-70
2021/12/27 02:48:05;;;;;;;17.52;7.55;;;;;;;-3.07;100.00;-19086.72;5063146;28;20286;-70
2021/12/27 02:50:31;;;;;;;21.93;8.57;;;;;;;-3.07;100.00;-19086.72;5063991;28;20059;-70
2021/12/27 02:52:58;;;;;;;18.73;8.93;;;;;;;-3.05;100.00;-19087.41;5063288;28;20271;-70
2021/12/27 02:55:24;;;;;;;12.90;5.87;;;;;;;-2.92;100.00;-19090.59;5062938;28;20738;-70
2021/12/27 02:57:50;;;;;;;17.17;8.03;;;;;;;-2.90;100.00;-19091.13;5058227;28;20351;-70
2021/12/27 03:00:28;;;;;;;17.47;7.70;;;;;;;-2.86;100.00;-19092.19;5062813;28;20024;-70
2021/12/27 03:02:56;;;;;;;18.73;8.50;;;;;;;-2.83;100.00;-19093.00;5063013;28;20306;-70
2021/12/27 03:05:24;;;;;;;16.03;6.30;;;;;;;-2.79;100.00;-19094.06;5045463;28;20291;-70
2021/12/27 03:07:51;;;;;;;17.13;7.87;;;;;;;-2.74;100.00;-19095.41;5046940;28;20271;-70
2021/12/27 03:10:19;;;;;;;23.03;9.20;;;;;;;-2.79;100.00;-19094.06;5044581;28;20271;-70
2021/12/27 03:12:45;;;;;;;18.20;7.00;;;;;;;-2.74;100.00;-19095.53;5043117;28;20359;-70
2021/12/27 03:15:13;;;;;;;22.23;7.90;;;;;;;-2.74;100.00;-19095.53;5045084;28;20278;-69
2021/12/27 03:17:41;;;;;;;15.60;6.13;;;;;;;-2.67;100.00;-19097.25;5044829;28;20422;-69
2021/12/27 03:20:08;;;;;;;17.37;7.67;;;;;;;-2.62;100.00;-19098.59;5043440;28;20354;-70
2021/12/27 03:22:34;;;;;;;16.73;7.23;;;;;;;-2.67;100.00;-19097.41;5043856;28;20271;-70
2021/12/27 03:25:00;;;;;;;17.23;7.73;;;;;;;-2.59;100.00;-19099.41;5042866;28;20302;-70
2021/12/27 03:27:26;;;;;;;18.67;7.70;;;;;;;-2.54;100.00;-19100.75;5044284;28;20263;-70
2021/12/27 03:29:51;;;;;;;23.50;9.50;;;;;;;-2.49;100.00;-19102.06;5044585;28;20832;-70
2021/12/27 03:32:18;;;;;;;19.73;8.13;;;;;;;-2.48;100.00;-19102.19;5042430;28;20814;-70
2021/12/27 03:34:53;;;;;;;22.63;9.50;;;;;;;-2.48;100.00;-19102.19;5028654;28;20116;-70
2021/12/27 03:37:21;;;;;;;21.90;9.80;;;;;;;-2.50;100.00;-19101.66;5046783;28;20289;-70
2021/12/27 03:39:46;;;;;;;20.70;9.20;;;;;;;-2.46;100.00;-19102.72;5042942;28;20268;-70
2021/12/27 03:42:12;;;;;;;22.63;8.57;;;;;;;-2.52;100.00;-19101.28;5043219;28;20272;-70
2021/12/27 03:44:37;;;;;;;20.70;8.80;;;;;;;-2.50;100.00;-19101.66;5042721;28;20083;-70
2021/12/27 03:47:03;;;;;;;19.90;8.83;;;;;;;-2.50;100.00;-19101.66;5050615;28;20027;-70
2021/12/27 03:49:28;;;;;;;21.97;8.63;;;;;;;-2.54;100.00;-19100.75;5048113;28;20400;-70
2021/12/27 03:51:54;;;;;;;23.87;9.40;;;;;;;-2.56;100.00;-19100.06;5043433;28;20607;-70
2021/12/27 03:54:19;;;;;;;17.40;8.17;;;;;;;-2.63;100.00;-19098.34;5042533;28;20075;-69
2021/12/27 03:56:45;;;;;;;17.67;7.87;;;;;;;-2.64;100.00;-19098.06;5042698;28;20324;-69
2021/12/27 03:59:35;;;;;;;18.80;8.70;;;;;;;-2.58;100.00;-19099.66;5042717;28;20032;-72
2021/12/27 04:02:01;;;;;;;17.20;7.50;;;;;;;-2.61;100.00;-19098.88;5041479;28;20053;-71
2021/12/27 04:04:27;;;;;;;19.53;7.43;;;;;;;-2.61;100.00;-19098.88;5041263;28;20334;-69
2021/12/27 04:06:52;;;;;;;14.53;6.87;;;;;;;-2.66;100.00;-19097.53;5042273;28;20722;-69
2021/12/27 04:09:19;;;;;;;20.20;9.13;;;;;;;-2.72;100.00;-19095.94;5042045;28;20104;-69
2021/12/27 04:11:44;;;;;;;20.17;8.00;;;;;;;-2.74;100.00;-19095.41;5042203;28;20465;-69
2021/12/27 04:14:10;;;;;;;19.00;7.83;;;;;;;-2.71;100.00;-19096.19;5041840;28;20267;-69
2021/12/27 04:16:35;;;;;;;22.47;8.77;;;;;;;-2.66;100.00;-19097.53;5041992;28;20028;-71
2021/12/27 04:19:01;;;;;;;13.83;6.93;;;;;;;-2.60;100.00;-19099.00;5041366;28;20658;-69
2021/12/27 04:21:26;;;;;;;13.40;7.23;;;;;;;-2.55;100.00;-19100.34;5042352;28;20017;-69
2021/12/27 04:23:52;;;;;;;22.37;9.30;;;;;;;-2.54;100.00;-19100.75;5042346;28;20399;-71
2021/12/27 04:26:17;;;;;;;21.00;8.33;;;;;;;-2.45;100.00;-19103.13;5041939;28;20025;-69
2021/12/27 04:28:42;;;;;;;14.43;6.90;;;;;;;-2.40;100.00;-19104.47;5041705;28;20508;-69
2021/12/27 04:31:08;;;;;;;21.17;7.63;;;;;;;-2.36;100.00;-19105.53;5041604;28;20033;-71
2021/12/27 04:33:33;;;;;;;19.03;8.23;;;;;;;-2.36;100.00;-19105.53;5041515;28;20028;-71
2021/12/27 04:35:59;;;;;;;15.83;7.47;;;;;;;-2.30;100.00;-19107.00;5041863;28;20104;-71
2021/12/27 04:38:24;;;;;;;18.87;7.57;;;;;;;-2.29;100.00;-19107.28;5040738;28;20558;-69
2021/12/27 04:40:52;;;;;;;16.80;7.43;;;;;;;-2.29;100.00;-19107.13;5041613;28;20078;-69
2021/12/27 04:43:20;;;;;;;16.57;7.73;;;;;;;-2.33;100.00;-19106.06;5041401;28;20674;-69
2021/12/27 04:45:47;;;;;;;20.47;9.70;;;;;;;-2.27;100.00;-19107.81;5040541;28;20634;-69
2021/12/27 04:48:12;;;;;;;19.43;8.00;;;;;;;-2.28;100.00;-19107.41;5040955;28;20275;-69
2021/12/27 04:50:38;;;;;;;18.87;7.67;;;;;;;-2.24;100.00;-19108.47;5041352;28;20275;-70
2021/12/27 04:53:05;;;;;;;23.27;9.00;;;;;;;-2.19;100.00;-19109.94;5041307;28;20029;-71
2021/12/27 04:55:32;;;;;;;15.17;7.03;;;;;;;-2.18;100.00;-19110.22;5041057;28;20040;-71
2021/12/27 04:57:58;;;;;;;16.63;8.57;;;;;;;-2.15;100.00;-19110.88;5040728;28;20374;-69
2021/12/27 05:00:24;;;;;;;13.77;6.73;;;;;;;-2.12;100.00;-19111.66;5040240;28;20856;-69
2021/12/27 05:02:49;;;;;;;14.63;6.67;;;;;;;-2.10;100.00;-19112.34;5040380;28;20279;-69
2021/12/27 05:05:15;;;;;;;22.67;8.90;;;;;;;-2.09;100.00;-19112.47;5040663;28;20048;-71
2021/12/27 05:07:41;;;;;;;19.30;7.53;;;;;;;-2.07;100.00;-19113.00;5040788;28;20446;-69
2021/12/27 05:10:06;;;;;;;18.53;8.53;;;;;;;-2.05;100.00;-19113.41;5039989;28;20025;-70
2021/12/27 05:12:32;;;;;;;20.47;9.47;;;;;;;-2.01;100.00;-19114.59;5040718;28;20025;-69
2021/12/27 05:14:57;;;;;;;21.60;7.27;;;;;;;-1.93;100.00;-19116.75;5040613;28;20140;-69
2021/12/27 05:17:23;;;;;;;18.97;8.40;;;;;;;-1.89;100.00;-19117.81;5040269;28;20044;-69
2021/12/27 05:19:48;;;;;;;19.20;7.67;;;;;;;-1.93;100.00;-19116.75;5041220;28;20032;-71
2021/12/27 05:22:14;;;;;;;19.00;9.10;;;;;;;-1.90;100.00;-19117.41;5040386;28;20864;-69
2021/12/27 05:24:39;;;;;;;19.57;7.70;;;;;;;-1.89;100.00;-19117.66;5039575;28;20047;-71
2021/12/27 05:27:05;;;;;;;18.27;8.23;;;;;;;-1.81;100.00;-19119.94;5040380;28;20475;-71
2021/12/27 05:29:30;;;;;;;30.13;10.27;;;;;;;-1.89;100.00;-19117.66;5040988;28;20102;-69
2021/12/27 05:32:01;;;;;;;20.03;9.20;;;;;;;-1.85;100.00;-19118.88;5040787;28;20048;-69
2021/12/27 05:34:27;;;;;;;18.60;8.53;;;;;;;-1.77;100.00;-19121.00;5040122;28;20040;-72
2021/12/27 05:36:53;;;;;;;15.07;6.73;;;;;;;-1.80;100.00;-19120.06;5040665;28;20276;-69
2021/12/27 05:39:20;;;;;;;20.63;8.70;;;;;;;-1.79;100.00;-19120.47;5039937;28;20294;-70
2021/12/27 05:41:46;;;;;;;23.30;9.37;;;;;;;-1.74;100.00;-19121.53;5040804;28;20519;-69
2021/12/27 05:44:12;;;;;;;20.23;8.70;;;;;;;-1.78;100.00;-19120.72;5040301;28;20283;-69
2021/12/27 05:46:38;;;;;;;18.77;7.50;;;;;;;-1.73;100.00;-19121.81;5040297;28;20286;-69
2021/12/27 05:49:03;;;;;;;19.23;8.40;;;;;;;-1.66;100.00;-19123.66;5040618;28;20028;-69
2021/12/27 05:51:29;;;;;;;22.43;9.67;;;;;;;-1.70;100.00;-19122.59;5040214;28;20025;-69
2021/12/27 05:53:54;;;;;;;15.27;6.83;;;;;;;-1.67;100.00;-19123.53;5040258;28;20036;-69
2021/12/27 05:56:20;;;;;;;17.80;8.17;;;;;;;-1.68;100.00;-19123.13;5040023;28;20068;-69
2021/12/27 05:58:45;;;;;;;20.40;9.17;;;;;;;-1.70;100.00;-19122.72;5040276;28;20496;-69
2021/12/27 06:01:11;;;;;;;18.37;7.87;;;;;;;-1.69;100.00;-19122.88;5039950;28;20041;-70
2021/12/27 06:03:36;;;;;;;17.93;7.67;;;;;;;-1.68;100.00;-19123.28;5036041;28;20025;-70
2021/12/27 06:06:02;;;;;;;20.00;8.80;;;;;;;-1.71;100.00;-19122.34;5040406;28;20056;-70
2021/12/27 06:08:27;;;;;;;20.97;8.60;;;;;;;-1.70;100.00;-19122.72;5039903;28;20056;-70
2021/12/27 06:10:53;;;;;;;17.30;7.40;;;;;;;-1.64;100.00;-19124.19;5039277;28;20124;-70
2021/12/27 06:13:18;;;;;;;19.97;8.63;;;;;;;-1.64;100.00;-19124.34;5040302;28;20481;-70
2021/12/27 06:15:43;;;;;;;16.93;6.77;;;;;;;-1.61;100.00;-19125.00;5039744;28;20109;-69
2021/12/27 06:18:09;;;;;;;20.80;8.87;;;;;;;-1.65;100.00;-19123.94;5040087;28;20032;-69
2021/12/27 06:20:34;;;;;;;21.60;9.27;;;;;;;-1.62;100.00;-19124.72;5040105;28;20551;-69
2021/12/27 06:23:00;;;;;;;19.50;8.43;;;;;;;-1.56;100.00;-19126.34;5039775;28;20037;-69
2021/12/27 06:25:25;;;;;;;18.47;8.57;;;;;;;-1.58;100.00;-19125.78;5038953;28;20032;-69
2021/12/27 06:27:51;;;;;;;19.63;9.03;;;;;;;-1.56;100.00;-19126.34;5039744;28;20086;-69
2021/12/27 06:30:17;;;;;;;20.10;8.83;;;;;;;-1.54;100.00;-19126.88;5039343;28;20116;-69
2021/12/27 06:32:43;;;;;;;19.27;8.63;;;;;;;-1.56;100.00;-19126.47;5039370;28;20104;-69
2021/12/27 06:35:11;;;;;;;19.70;8.33;;;;;;;-1.57;100.00;-19126.19;5040614;28;20497;-69
2021/12/27 06:37:37;;;;;;;18.30;8.27;;;;;;;-1.61;100.00;-19125.13;5043110;28;20315;-72
2021/12/27 06:40:03;;;;;;;21.23;9.20;;;;;;;-1.55;100.00;-19126.59;5043949;28;20275;-72
2021/12/27 06:42:29;;;;;;;21.40;8.67;;;;;;;-1.48;100.00;-19128.47;5042288;28;20706;-69
2021/12/27 06:44:54;;;;;;;21.73;9.73;;;;;;;-1.57;100.00;-19126.19;5044187;28;20287;-69
2021/12/27 06:47:20;;;;;;;23.60;7.97;;;;;;;-1.46;100.00;-19129.00;5042735;28;20555;-69
2021/12/27 06:49:47;;;;;;;18.90;8.87;;;;;;;-1.46;100.00;-19129.00;5042629;28;20043;-69
2021/12/27 06:52:13;;;;;;;21.20;8.50;;;;;;;-1.47;100.00;-19128.72;5043232;28;20033;-72
2021/12/27 06:54:40;;;;;;;19.27;7.40;;;;;;;-1.44;100.00;-19129.53;5043527;28;20264;-72
2021/12/27 06:57:06;;;;;;;19.20;8.63;;;;;;;-1.45;100.00;-19129.25;5043602;28;20040;-72
2021/12/27 06:59:32;;;;;;;21.13;9.70;;;;;;;-1.44;100.00;-19129.53;5042110;28;20303;-72
2021/12/27 07:01:58;;;;;;;20.27;9.53;;;;;;;-1.44;100.00;-19129.53;5042324;28;20332;-72
2021/12/27 07:04:23;;;;;;;16.57;7.70;;;;;;;-1.38;100.00;-19131.13;5042311;28;20057;-72
2021/12/27 07:06:49;;;;;;;17.57;8.27;;;;;;;-1.41;100.00;-19130.34;5039624;28;20031;-69
2021/12/27 07:09:15;;;;;;;25.70;9.77;;;;;;;-1.40;100.00;-19130.59;5042381;28;20033;-72
2021/12/27 07:11:41;;;;;;;21.40;8.70;;;;;;;-1.40;100.00;-19130.59;5043123;28;20492;-72
2021/12/27 07:14:07;;;;;;;19.90;8.30;;;;;;;-1.38;100.00;-19131.13;5042518;28;20278;-69
2021/12/27 07:16:32;;;;;;;16.73;7.53;;;;;;;-1.35;100.00;-19131.78;5043036;28;20462;-72
2021/12/27 07:18:58;;;;;;;20.07;8.10;;;;;;;-1.33;100.00;-19132.31;5042261;28;20393;-69
2021/12/27 07:21:23;;;;;;;17.67;7.83;;;;;;;-1.32;100.00;-19132.59;5043463;28;20040;-69
2021/12/27 07:23:49;;;;;;;17.40;8.30;;;;;;;-1.33;100.00;-19132.47;5042738;28;20036;-69
2021/12/27 07:26:14;;;;;;;16.43;7.00;;;;;;;-1.32;100.00;-19132.72;5029656;28;20036;-69
2021/12/27 07:28:40;;;;;;;22.73;9.77;;;;;;;-1.35;100.00;-19131.94;5043247;28;20035;-69
2021/12/27 07:31:07;;;;;;;22.87;9.03;;;;;;;-1.35;100.00;-19131.94;5042925;28;20735;-70
2021/12/27 07:33:33;;;;;;;12.23;5.47;;;;;;;-1.36;100.00;-19131.66;5042604;28;20031;-70
2021/12/27 07:35:59;;;;;;;20.77;9.10;;;;;;;-1.33;100.00;-19132.47;5042927;28;20291;-70
2021/12/27 07:38:24;;;;;;;19.70;8.03;;;;;;;-1.30;100.00;-19133.25;5042664;28;20299;-70
2021/12/27 07:40:50;;;;;;;20.33;9.00;;;;;;;-1.28;100.00;-19133.66;5042988;28;20032;-70
2021/12/27 07:43:15;;;;;;;23.30;10.90;;;;;;;-1.32;100.00;-19132.72;5042624;28;20035;-70
2021/12/27 07:45:41;;;;;;;20.73;7.70;;;;;;;-1.28;100.00;-19133.78;5042149;28;20036;-70
2021/12/27 07:48:09;;;;;;;13.27;6.03;;;;;;;-1.25;100.00;-19134.59;5040931;28;20024;-70
2021/12/27 07:50:35;;;;;;;18.93;7.90;;;;;;;-1.22;100.00;-19135.38;5039838;28;20571;-70
2021/12/27 07:53:01;;;;;;;21.30;7.17;;;;;;;-1.23;100.00;-19135.13;5042140;28;20294;-70
2021/12/27 07:55:27;;;;;;;23.20;9.63;;;;;;;-1.23;100.00;-19135.00;5042387;28;20032;-70
2021/12/27 07:57:54;;;;;;;20.63;8.00;;;;;;;-1.20;100.00;-19135.78;5042189;28;20040;-70
2021/12/27 08:00:20;;;;;;;16.00;7.10;;;;;;;-1.22;100.00;-19135.38;5037359;28;20277;-70
2021/12/27 08:02:45;;;;;;;21.47;9.10;;;;;;;-1.18;100.00;-19136.31;5040207;28;20275;-69
2021/12/27 08:05:11;;;;;;;25.83;10.73;;;;;;;-1.19;100.00;-19136.19;5040576;28;20079;-70
2021/12/27 08:07:36;;;;;;;24.40;9.87;;;;;;;-1.16;100.00;-19136.72;5042103;28;20477;-72
2021/12/27 08:10:03;;;;;;;20.70;8.73;;;;;;;-1.08;100.00;-19139.00;5042278;28;20029;-70
2021/12/27 08:12:28;;;;;;;21.70;9.90;;;;;;;-1.08;100.00;-19138.84;5040957;28;20055;-70
2021/12/27 08:14:53;;;;;;;22.47;8.93;;;;;;;-1.03;100.00;-19140.19;5041881;28;20029;-69
2021/12/27 08:17:19;;;;;;;18.13;7.73;;;;;;;-1.03;100.00;-19140.19;5041682;28;20237;-70
2021/12/27 08:19:45;;;;;;;21.30;9.90;;;;;;;-1.16;100.00;-19136.72;5042284;28;20448;-70
2021/12/27 08:22:11;;;;;;;24.50;10.13;;;;;;;-1.06;100.00;-19139.38;5041418;28;20051;-70
2021/12/27 08:24:36;;;;;;;20.23;9.43;;;;;;;-0.99;100.00;-19141.38;5040902;28;20275;-69
2021/12/27 08:27:03;;;;;;;22.80;10.23;;;;;;;-1.11;100.00;-19138.19;5041308;28;20029;-70
2021/12/27 08:29:29;;;;;;;22.47;10.07;;;;;;;-1.04;100.00;-19139.91;5041490;28;20025;-70
2021/12/27 08:31:55;;;;;;;23.00;9.87;;;;;;;-1.02;100.00;-19140.59;5040032;28;20021;-70
2021/12/27 08:34:20;;;;;;;24.90;10.10;;;;;;;-0.92;100.00;-19143.13;5040702;28;20134;-70
2021/12/27 08:36:45;;;;;;;25.70;11.63;;;;;;;-0.87;100.00;-19144.44;5040483;28;20028;-70
2021/12/27 08:39:11;;;;;;;26.43;12.97;;;;;;;-0.92;100.00;-19143.13;5041447;28;20075;-69
2021/12/27 08:41:36;;;;;;;26.20;10.67;;;;;;;-0.84;100.00;-19145.25;5041868;28;20025;-69
2021/12/27 08:44:04;;;;;;;29.03;11.37;;;;;;;-0.78;100.00;-19146.84;5041116;28;20036;-69
2021/12/27 08:46:31;;;;;;;23.80;10.27;;;;;;;-0.75;100.00;-19147.66;5040494;28;20111;-69
2021/12/27 08:48:56;;;;;;;25.27;11.27;;;;;;;-0.74;100.00;-19147.91;5040625;28;20036;-69
2021/12/27 08:51:23;;;;;;;23.73;10.30;;;;;;;-0.68;100.00;-19149.38;5041287;28;20036;-69
2021/12/27 08:53:49;;;;;;;23.90;11.53;;;;;;;-0.68;100.00;-19149.50;5040788;28;20040;-69
2021/12/27 08:56:14;;;;;;;21.63;11.27;;;;;;;-0.70;100.00;-19148.97;5037182;28;20420;-69
2021/12/27 08:58:40;;;;;;;26.77;12.00;;;;;;;-0.70;100.00;-19148.97;5039658;28;20043;-69
2021/12/27 09:01:06;;;;;;;25.60;10.53;;;;;;;-0.69;100.00;-19149.25;5040769;28;20032;-69
2021/12/27 09:03:33;;;;;;;23.67;10.67;;;;;;;-0.69;100.00;-19149.25;5036377;28;20094;-71
2021/12/27 09:05:58;;;;;;;23.93;11.33;;;;;;;-0.63;100.00;-19150.72;5039519;28;20540;-69
2021/12/27 09:08:23;;;;;;;19.43;9.00;;;;;;;-0.60;100.00;-19151.63;5041785;28;20096;-72
2021/12/27 09:10:49;;;;;;;24.50;10.97;;;;;;;-0.67;100.00;-19149.78;5041326;28;20080;-72
2021/12/27 09:13:14;;;;;;;23.67;11.43;;;;;;;-0.59;100.00;-19151.78;5040745;28;20056;-71
2021/12/27 09:15:40;;;;;;;24.53;9.33;;;;;;;-0.45;100.00;-19155.38;5040007;28;20588;-69
2021/12/27 09:18:05;;;;;;;26.43;12.00;;;;;;;-0.57;100.00;-19152.31;5040255;28;20029;-69
2021/12/27 09:20:31;;;;;;;21.93;10.63;;;;;;;-0.51;100.00;-19153.78;5041175;28;20374;-69
2021/12/27 09:22:57;;;;;;;27.03;11.10;;;;;;;-0.47;100.00;-19154.97;5040521;28;20041;-69
2021/12/27 09:25:22;;;;;;;29.83;12.67;;;;;;;-0.48;100.00;-19154.56;5041121;28;20028;-69
2021/12/27 09:27:48;;;;;;;16.50;7.33;;;;;;;-0.47;100.00;-19154.84;5040476;28;20032;-69
2021/12/27 09:30:14;;;;;;;24.23;10.57;;;;;;;-0.41;100.00;-19156.44;5040962;28;20028;-70
2021/12/27 09:32:39;;;;;;;23.87;9.93;;;;;;;-0.44;100.00;-19155.75;5040600;28;20377;-69
2021/12/27 09:35:06;;;;;;;24.17;9.53;;;;;;;-0.32;100.00;-19158.81;5040748;28;20036;-69
2021/12/27 09:37:32;;;;;;;22.90;10.43;;;;;;;-0.34;100.00;-19158.28;5039716;28;20116;-69
2021/12/27 09:39:57;;;;;;;22.90;9.63;;;;;;;-0.21;100.00;-19161.75;5041173;28;20128;-69
2021/12/27 09:42:24;;;;;;;20.63;9.67;;;;;;;-0.20;100.00;-19161.88;5040714;28;20423;-72
2021/12/27 09:44:52;;;;;;;22.87;10.70;;;;;;;-0.32;100.00;-19158.81;5040951;28;20047;-69
2021/12/27 09:47:18;;;;;;;24.90;11.10;;;;;;;-0.24;100.00;-19160.97;5041071;28;20056;-69
2021/12/27 09:49:44;;;;;;;23.43;10.17;;;;;;;-0.26;100.00;-19160.28;5040273;28;20083;-69
2021/12/27 09:52:10;;;;;;;26.67;12.13;;;;;;;-0.15;100.00;-19163.34;5040730;28;20037;-69
2021/12/27 09:54:36;;;;;;;23.73;10.80;;;;;;;-0.07;100.00;-19165.47;5040832;28;20028;-69
2021/12/27 09:57:01;;;;;;;22.97;11.17;;;;;;;-0.02;100.00;-19166.81;5040446;28;20117;-69
2021/12/27 09:59:27;;;;;;;21.37;10.57;;;;;;;0.06;100.00;-19168.69;5040530;28;20108;-69
2021/12/27 10:01:53;;;;;;;23.73;10.93;;;;;;;0.01;100.00;-19167.34;5040923;28;20025;-69
2021/12/27 10:04:20;;;;;;;24.20;10.97;;;;;;;0.05;100.00;-19168.41;5040324;28;20497;-69
2021/12/27 10:06:45;;;;;;;24.73;11.03;;;;;;;0.07;100.00;-19168.94;5033601;28;20082;-69
2021/12/27 10:09:11;;;;;;;19.97;9.17;;;;;;;0.21;100.00;-19172.78;5022603;28;20029;-69
2021/12/27 10:11:46;;;;;;;19.43;9.63;;;;;;;0.26;100.00;-19174.00;5044104;28;20024;-69
2021/12/27 10:14:12;;;;;;;22.40;11.27;;;;;;;0.08;100.00;-19169.22;5044424;28;20055;-69
2021/12/27 10:16:45;;;;;;;22.83;10.53;;;;;;;0.09;100.00;-19169.59;5044717;28;20039;-69
2021/12/27 10:19:15;;;;;;;18.73;7.90;;;;;;;0.25;100.00;-19173.72;5043678;28;20273;-69
2021/12/27 10:21:41;;;;;;;18.60;8.67;;;;;;;0.23;100.00;-19173.19;5044263;28;20098;-69
2021/12/27 10:24:14;;;;;;;20.93;9.03;;;;;;;0.35;100.00;-19176.38;5044446;28;20036;-69
2021/12/27 10:26:40;;;;;;;28.27;10.47;;;;;;;0.35;100.00;-19176.38;5044227;28;20039;-69
2021/12/27 10:29:29;;;;;;;25.77;9.70;;;;;;;0.37;100.00;-19176.94;5043989;28;20025;-69
2021/12/27 10:32:04;;;;;;;23.73;11.50;;;;;;;0.30;100.00;-19175.06;5032340;28;20444;-70
2021/12/27 10:34:43;;;;;;;24.37;11.77;;;;;;;0.31;100.00;-19175.31;5044126;28;20040;-70
2021/12/27 10:37:29;;;;;;;24.07;11.20;;;;;;;0.26;100.00;-19174.00;5044130;28;20035;-70
2021/12/27 10:39:58;;;;;;;23.23;9.40;;;;;;;0.38;100.00;-19177.19;5044113;28;20159;-69
2021/12/27 10:42:30;;;;;;;22.27;8.93;;;;;;;0.38;100.00;-19177.06;5044155;28;20029;-69
2021/12/27 10:45:01;;;;;;;22.73;9.93;;;;;;;0.47;100.00;-19179.59;5044205;28;20025;-69
2021/12/27 10:47:33;;;;;;;24.80;11.13;;;;;;;0.51;100.00;-19180.66;5044096;28;20143;-69
2021/12/27 10:50:03;;;;;;;;;;;;;;;0.52;100.00;-19180.78;5031358;28;20071;-69
2021/12/27 10:52:42;;;;;;;22.43;10.63;;;;;;;0.49;100.00;-19179.97;5043837;28;19932;-69
2021/12/27 10:55:08;;;;;;;22.03;9.40;;;;;;;0.58;100.00;-19182.50;5043702;28;20069;-69
2021/12/27 10:57:33;;;;;;;25.47;10.23;;;;;;;0.54;100.00;-19181.44;5043573;28;20814;-69
2021/12/27 11:00:19;;;;;;;25.47;11.67;;;;;;;0.47;100.00;-19179.59;5043966;28;20094;-69
2021/12/27 11:02:45;;;;;;;27.90;11.03;;;;;;;0.54;100.00;-19181.31;5051504;28;20036;-69
2021/12/27 11:05:26;;;;;;;17.83;7.40;;;;;;;0.54;100.00;-19181.44;5044150;28;20037;-69
2021/12/27 11:08:02;;;;;;;21.73;9.80;;;;;;;0.52;100.00;-19180.78;5041609;28;20032;-69
2021/12/27 11:10:32;;;;;;;22.07;10.80;;;;;;;0.54;100.00;-19181.31;5041175;28;20393;-69